Westport, South Dakota
Current Conditions -  °F | °C
As of 8:53 PM on Friday 19 Dec 2014 (Local Time) from KABR Reporting Station
Haze Haze  
Wind Chill: 19°   Ceiling: 600
Heat Index: 30°   Visibility: 6mi
Dew Point: 26°   Wind: 15mph
Humidity: 85%   Direction: 200°SSW
Pressure: 30.01"   Gusts: NA
Location:  45.65°N, 98.5°W
Report Text: KABR 200253Z AUTO 20013KT 6SM BR OVC006 M01/M03 A3001 RMK AO2 SLP180 T10111033 55001
Loading
Personal Weather Stations






























Interactive Weather Map New forecast layout! Learn more

10-Day Weather Forecast

Advertisements
Track Severe Weather on mobile